Baykal — UCWU — position and weather

sailwx.info

Track history (hours):
 
Tides and Currents Weather Stations Pressure Air Temp Water Temp Dewpoint Dewpoint Depression Visibility Wind Speed Wind Dir Waves Ship Positions

Baykal

Last reported at 2017-Nov-16 11:28 UTC. Time now 2017-Dec-17 12:11 UTC.
Position N 45°16' E 036°26'.
Warning: this ship's position is 31 days out of date.

Length 37 m; draft 1.7 m.

Type: Neutral ship in war zone. MMSI: 273358280.

Date/timePositionNaut miles runAvg speedWind from/ knotsBaromVisibWave heightAir tempDewpointWater temp
2017-Nov-16 11:28N 45°16' E 036°26'1 2.1
2017-Nov-16 11:00N 45°17' E 036°27'2 2.9
2017-Nov-16 10:30N 45°15' E 036°27'2 3.1
2017-Nov-16 09:49N 45°13' E 036°27'1 3.2
2017-Nov-16 09:30N 45°12' E 036°28'2 3.4
2017-Nov-16 09:00N 45°11' E 036°29'4 0.1
2017-Nov-14 19:29N 45°08' E 036°33'0 0.0
2017-Nov-14 14:10N 45°08' E 036°34'0 0.0
2017-Nov-14 14:00N 45°08' E 036°34'0 0.0
2017-Nov-14 12:27N 45°08' E 036°33'0 0.0
2017-Nov-14 10:56N 45°08' E 036°33'2 3.7
2017-Nov-14 10:29N 45°09' E 036°34'1 2.6
2017-Nov-14 10:00N 45°10' E 036°34'0 0.1
2017-Nov-14 09:25N 45°10' E 036°34'0 0.0
2017-Nov-14 08:28N 45°10' E 036°34'0 0.0
2017-Nov-14 07:18N 45°10' E 036°34'0 0.0
2017-Nov-14 06:18N 45°10' E 036°34'0 0.0
2017-Nov-14 05:50N 45°10' E 036°34'0 0.0
2017-Nov-14 05:22N 45°10' E 036°34'0 0.0
2017-Nov-14 04:39N 45°10' E 036°34'0 0.0
2017-Nov-13 21:31N 45°10' E 036°34'3 0.1
2017-Nov-11 18:52N 45°08' E 036°34'0 0.0
2017-Nov-11 14:31N 45°08' E 036°33'0 0.1
2017-Nov-11 14:28N 45°08' E 036°33'0 0.0
2017-Nov-11 11:30N 45°08' E 036°33'0 0.0
2017-Nov-11 10:58N 45°08' E 036°33'0 0.0
2017-Nov-11 10:30N 45°08' E 036°33'0 0.0
2017-Nov-11 09:50N 45°08' E 036°33'0 0.0
2017-Nov-11 09:27N 45°08' E 036°33'0 0.0
2017-Nov-11 08:46N 45°08' E 036°33'0 0.1
2017-Nov-11 08:30N 45°07' E 036°33'0 0.0
2017-Nov-11 08:00N 45°07' E 036°33'0 0.0
2017-Nov-11 07:20N 45°07' E 036°33'0 0.0
2017-Nov-11 06:54N 45°07' E 036°33'0 0.0
2017-Nov-11 06:30N 45°07' E 036°33'0 0.0
2017-Nov-11 05:58N 45°07' E 036°33'0 0.0
2017-Nov-11 05:28N 45°07' E 036°33'0 0.0
2017-Nov-11 03:58N 45°07' E 036°33'0 0.0
2017-Nov-11 03:10N 45°07' E 036°33'0 0.1
2017-Nov-11 03:00N 45°07' E 036°33'0 0.0
2017-Nov-10 14:41N 45°07' E 036°33'0 0.0
2017-Nov-10 14:29N 45°07' E 036°33'0 0.0
2017-Nov-10 13:59N 45°07' E 036°33'0 0.0
2017-Nov-10 13:30N 45°07' E 036°33'0 0.0
2017-Nov-10 13:00N 45°07' E 036°33'0 0.0
2017-Nov-10 12:30N 45°07' E 036°33'0 0.0
2017-Nov-10 09:30N 45°07' E 036°33'0 0.0
2017-Nov-10 09:00N 45°07' E 036°33'0 0.0
2017-Nov-10 08:30N 45°07' E 036°33'0 0.0
2017-Nov-10 07:59N 45°07' E 036°33'0 0.0
2017-Nov-10 07:28N 45°07' E 036°33'0 0.0
2017-Nov-10 06:49N 45°07' E 036°33'0 0.0
2017-Nov-10 06:22N 45°07' E 036°33'0 0.0
2017-Nov-10 06:00N 45°07' E 036°33'0 0.0
2017-Nov-10 01:20N 45°07' E 036°33'0 0.0
2017-Nov-09 23:08N 45°07' E 036°33'0 0.0
2017-Nov-09 23:00N 45°07' E 036°33'0 0.0
2017-Nov-09 22:31N 45°07' E 036°33'0 0.0
2017-Nov-09 21:59N 45°07' E 036°33'0 0.0
2017-Nov-09 21:19N 45°07' E 036°33'0 0.0
2017-Nov-09 20:07N 45°07' E 036°33'0 0.0
2017-Nov-09 19:58N 45°07' E 036°33'0 0.0
2017-Nov-09 19:30N 45°07' E 036°33'0 0.0
2017-Nov-09 19:01N 45°07' E 036°33'0 0.0
2017-Nov-09 13:55N 45°07' E 036°33'0 0.0
2017-Nov-09 10:38N 45°07' E 036°33'0 0.0
2017-Nov-09 10:13N 45°07' E 036°33'0 0.0
2017-Nov-09 09:44N 45°07' E 036°33'0 0.1
2017-Nov-09 09:28N 45°07' E 036°33'0 0.0
2017-Nov-09 09:00N 45°07' E 036°33'0 0.0
2017-Nov-09 08:30N 45°07' E 036°33'0 0.0
2017-Nov-09 07:59N 45°07' E 036°33'0 0.0
2017-Nov-09 07:30N 45°07' E 036°33'0 0.0
2017-Nov-09 06:59N 45°07' E 036°33'0 0.0
2017-Nov-09 06:29N 45°07' E 036°33'0 0.0
2017-Nov-09 05:53N 45°07' E 036°33'0 0.0
2017-Nov-07 20:28N 45°07' E 036°33'0 0.0
2017-Nov-07 19:56N 45°07' E 036°33'0 0.0
2017-Nov-07 19:30N 45°07' E 036°33'0 0.0
2017-Nov-07 18:59N 45°07' E 036°33'0 0.0
2017-Nov-07 18:30N 45°07' E 036°33'0 0.0
2017-Nov-07 17:59N 45°08' E 036°33'0 0.0
2017-Nov-07 17:29N 45°07' E 036°33'0 0.0
2017-Nov-07 11:30N 45°07' E 036°33'0 0.0
2017-Nov-07 08:07N 45°08' E 036°33'0 0.1
2017-Nov-07 08:00N 45°08' E 036°33'0 0.1
2017-Nov-07 07:30N 45°08' E 036°33'0 0.0
2017-Nov-07 06:42N 45°07' E 036°33'0 0.0
2017-Nov-07 06:19N 45°07' E 036°33'0 0.0
2017-Nov-07 06:00N 45°07' E 036°33'0 0.0
2017-Nov-07 05:30N 45°08' E 036°33'0 0.0
2017-Nov-07 05:00N 45°08' E 036°33'0 0.0
2017-Nov-07 04:30N 45°08' E 036°33'0 0.0
2017-Nov-07 03:59N 45°08' E 036°33'0 0.1
2017-Nov-07 03:29N 45°08' E 036°33'0 0.0
2017-Nov-07 01:22N 45°08' E 036°33'0 0.0
2017-Nov-07 00:52N 45°08' E 036°33'0 0.1
2017-Nov-07 00:30N 45°08' E 036°33'0 0.0
2017-Nov-07 00:00N 45°08' E 036°33'0 0.0
2017-Nov-06 23:24N 45°08' E 036°33'0 0.0
2017-Nov-06 22:55N 45°08' E 036°33'0 0.0
2017-Nov-06 22:29N 45°08' E 036°33'0 0.0
2017-Nov-06 21:57N 45°08' E 036°33'0 0.0
2017-Nov-06 21:06N 45°08' E 036°33'0 0.0
2017-Nov-06 21:00N 45°08' E 036°33'0 0.0
2017-Nov-06 20:28N 45°08' E 036°33'  
Track history (hours):
 
Tides and Currents Weather Stations Pressure Air Temp Water Temp Dewpoint Dewpoint Depression Visibility Wind Speed Wind Dir Waves Ship Positions

Baykal

Last reported at 2017-Nov-16 11:28 UTC. Time now 2017-Dec-17 12:11 UTC.
Position N 45°16' E 036°26'.
Warning: this ship's position is 31 days out of date.

Length 37 m; draft 1.7 m.

Type: Neutral ship in war zone. MMSI: 273358280.

Date/timePositionNaut miles runAvg speedWind from/ knotsBaromVisibWave heightAir tempDewpointWater temp
2017-Nov-16 11:28N 45°16' E 036°26'1 2.1
2017-Nov-16 11:00N 45°17' E 036°27'2 2.9
2017-Nov-16 10:30N 45°15' E 036°27'2 3.1
2017-Nov-16 09:49N 45°13' E 036°27'1 3.2
2017-Nov-16 09:30N 45°12' E 036°28'2 3.4
2017-Nov-16 09:00N 45°11' E 036°29'4 0.1
2017-Nov-14 19:29N 45°08' E 036°33'0 0.0
2017-Nov-14 14:10N 45°08' E 036°34'0 0.0
2017-Nov-14 14:00N 45°08' E 036°34'0 0.0
2017-Nov-14 12:27N 45°08' E 036°33'0 0.0
2017-Nov-14 10:56N 45°08' E 036°33'2 3.7
2017-Nov-14 10:29N 45°09' E 036°34'1 2.6
2017-Nov-14 10:00N 45°10' E 036°34'0 0.1
2017-Nov-14 09:25N 45°10' E 036°34'0 0.0
2017-Nov-14 08:28N 45°10' E 036°34'0 0.0
2017-Nov-14 07:18N 45°10' E 036°34'0 0.0
2017-Nov-14 06:18N 45°10' E 036°34'0 0.0
2017-Nov-14 05:50N 45°10' E 036°34'0 0.0
2017-Nov-14 05:22N 45°10' E 036°34'0 0.0
2017-Nov-14 04:39N 45°10' E 036°34'0 0.0
2017-Nov-13 21:31N 45°10' E 036°34'3 0.1
2017-Nov-11 18:52N 45°08' E 036°34'0 0.0
2017-Nov-11 14:31N 45°08' E 036°33'0 0.1
2017-Nov-11 14:28N 45°08' E 036°33'0 0.0
2017-Nov-11 11:30N 45°08' E 036°33'0 0.0
2017-Nov-11 10:58N 45°08' E 036°33'0 0.0
2017-Nov-11 10:30N 45°08' E 036°33'0 0.0
2017-Nov-11 09:50N 45°08' E 036°33'0 0.0
2017-Nov-11 09:27N 45°08' E 036°33'0 0.0
2017-Nov-11 08:46N 45°08' E 036°33'0 0.1
2017-Nov-11 08:30N 45°07' E 036°33'0 0.0
2017-Nov-11 08:00N 45°07' E 036°33'0 0.0
2017-Nov-11 07:20N 45°07' E 036°33'0 0.0
2017-Nov-11 06:54N 45°07' E 036°33'0 0.0
2017-Nov-11 06:30N 45°07' E 036°33'0 0.0
2017-Nov-11 05:58N 45°07' E 036°33'0 0.0
2017-Nov-11 05:28N 45°07' E 036°33'0 0.0
2017-Nov-11 03:58N 45°07' E 036°33'0 0.0
2017-Nov-11 03:10N 45°07' E 036°33'0 0.1
2017-Nov-11 03:00N 45°07' E 036°33'0 0.0
2017-Nov-10 14:41N 45°07' E 036°33'0 0.0
2017-Nov-10 14:29N 45°07' E 036°33'0 0.0
2017-Nov-10 13:59N 45°07' E 036°33'0 0.0
2017-Nov-10 13:30N 45°07' E 036°33'0 0.0
2017-Nov-10 13:00N 45°07' E 036°33'0 0.0
2017-Nov-10 12:30N 45°07' E 036°33'0 0.0
2017-Nov-10 09:30N 45°07' E 036°33'0 0.0
2017-Nov-10 09:00N 45°07' E 036°33'0 0.0
2017-Nov-10 08:30N 45°07' E 036°33'0 0.0
2017-Nov-10 07:59N 45°07' E 036°33'0 0.0
2017-Nov-10 07:28N 45°07' E 036°33'0 0.0
2017-Nov-10 06:49N 45°07' E 036°33'0 0.0
2017-Nov-10 06:22N 45°07' E 036°33'0 0.0
2017-Nov-10 06:00N 45°07' E 036°33'0 0.0
2017-Nov-10 01:20N 45°07' E 036°33'0 0.0
2017-Nov-09 23:08N 45°07' E 036°33'0 0.0
2017-Nov-09 23:00N 45°07' E 036°33'0 0.0
2017-Nov-09 22:31N 45°07' E 036°33'0 0.0
2017-Nov-09 21:59N 45°07' E 036°33'0 0.0
2017-Nov-09 21:19N 45°07' E 036°33'0 0.0
2017-Nov-09 20:07N 45°07' E 036°33'0 0.0
2017-Nov-09 19:58N 45°07' E 036°33'0 0.0
2017-Nov-09 19:30N 45°07' E 036°33'0 0.0
2017-Nov-09 19:01N 45°07' E 036°33'0 0.0
2017-Nov-09 13:55N 45°07' E 036°33'0 0.0
2017-Nov-09 10:38N 45°07' E 036°33'0 0.0
2017-Nov-09 10:13N 45°07' E 036°33'0 0.0
2017-Nov-09 09:44N 45°07' E 036°33'0 0.1
2017-Nov-09 09:28N 45°07' E 036°33'0 0.0
2017-Nov-09 09:00N 45°07' E 036°33'0 0.0
2017-Nov-09 08:30N 45°07' E 036°33'0 0.0
2017-Nov-09 07:59N 45°07' E 036°33'0 0.0
2017-Nov-09 07:30N 45°07' E 036°33'0 0.0
2017-Nov-09 06:59N 45°07' E 036°33'0 0.0
2017-Nov-09 06:29N 45°07' E 036°33'0 0.0
2017-Nov-09 05:53N 45°07' E 036°33'0 0.0
2017-Nov-07 20:28N 45°07' E 036°33'0 0.0
2017-Nov-07 19:56N 45°07' E 036°33'0 0.0
2017-Nov-07 19:30N 45°07' E 036°33'0 0.0
2017-Nov-07 18:59N 45°07' E 036°33'0 0.0
2017-Nov-07 18:30N 45°07' E 036°33'0 0.0
2017-Nov-07 17:59N 45°08' E 036°33'0 0.0
2017-Nov-07 17:29N 45°07' E 036°33'0 0.0
2017-Nov-07 11:30N 45°07' E 036°33'0 0.0
2017-Nov-07 08:07N 45°08' E 036°33'0 0.1
2017-Nov-07 08:00N 45°08' E 036°33'0 0.1
2017-Nov-07 07:30N 45°08' E 036°33'0 0.0
2017-Nov-07 06:42N 45°07' E 036°33'0 0.0
2017-Nov-07 06:19N 45°07' E 036°33'0 0.0
2017-Nov-07 06:00N 45°07' E 036°33'0 0.0
2017-Nov-07 05:30N 45°08' E 036°33'0 0.0
2017-Nov-07 05:00N 45°08' E 036°33'0 0.0
2017-Nov-07 04:30N 45°08' E 036°33'0 0.0
2017-Nov-07 03:59N 45°08' E 036°33'0 0.1
2017-Nov-07 03:29N 45°08' E 036°33'0 0.0
2017-Nov-07 01:22N 45°08' E 036°33'0 0.0
2017-Nov-07 00:52N 45°08' E 036°33'0 0.1
2017-Nov-07 00:30N 45°08' E 036°33'0 0.0
2017-Nov-07 00:00N 45°08' E 036°33'0 0.0
2017-Nov-06 23:24N 45°08' E 036°33'0 0.0
2017-Nov-06 22:55N 45°08' E 036°33'0 0.0
2017-Nov-06 22:29N 45°08' E 036°33'0 0.0
2017-Nov-06 21:57N 45°08' E 036°33'0 0.0
2017-Nov-06 21:06N 45°08' E 036°33'0 0.0
2017-Nov-06 21:00N 45°08' E 036°33'0 0.0
2017-Nov-06 20:28N 45°08' E 036°33'  

Dump ship's entire track history